Brownsville, VT

11:43 PM EST on December 24, 2014 (GMT -0500)
Pikes Peak | Change Station
CLOSE
Current Station
Personal Weather Station
Location: Weathersfield, VT
Elevation: 1200 ft
Nearby Weather Stations
Active Advisory: Areal Flood Watch

Elev 1200 ft 43.40 °N, 72.48 °W | Updated 3 minutes ago

Overcast
Overcast
37.1 °F
Feels Like 37 °F
N
1.0
Wind Variable Wind from East
Gusts 1.0 mph

Today
High -- | Low -- °F
--% Chance of Precip.
Yesterday
High -- | Low -- °F
Precip. -- in
7:20 AM 4:18 PM
Waxing Crescent, 13% visible
Pressure 29.55 in
Visibility 0.5 miles
Clouds
Windchill 37 °F
Dew Point 37 °F
Humidity 99%
Rainfall 0.91 in
Snow Depth Not available.
UV Not available.
Pollen .10 out of 12
Air Quality Not available.
Flu Activity Not available.
SPECI KVSF 250439Z AUTO 00000KT 1/2SM FG VV003 01/01 A2955 RMK AO2 T00110011 TSNO

More Conditions Fewer Conditions

Pressure 29.55 in
Visibility 0.5 miles
Clouds
Windchill 37 °F
Dew Point 37 °F
Humidity 99%
Rainfall 0.91 in
Snow Depth Not available.
UV Not available.
Pollen .10 out of 12
Air Quality Not available.
Flu Activity Not available.
SPECI KVSF 250439Z AUTO 00000KT 1/2SM FG VV003 01/01 A2955 RMK AO2 T00110011 TSNO

More Conditions Fewer Conditions

10-Day Weather Forecast

Almanac

Astronomy

Dec. 24, 2014 Rise Set
Actual Time
Civil Twilight
Nautical Twilight
Astronomical Twilight
Moon
Length of Visible Light
Length of Day
Tomorrow will be .
, % of the Moon is Illuminated

Today's Extremes

State Highs State Lows

Community

WunderPhotos

Upload Photos

1,780,238 photos uploaded!

WunderBlogs® & News

Nearby

Air Quality

  Air Quality AQ Index Pollutant
Not available.

Snow Depth

Station Depth Elevation

Earthquake Activity

City Distance Mag. Time & Date
Minimum magnitude displayed is 2.5.

Coastal Water Temperatures

Place Temperature

Nearby Weather Stations